FQNP

Nampula Airport

Nampula, Mozambique
METAR FQNP 181400Z 10012KT 9999 BKN020 27/16 Q1019
Observed Flight Rules
Aug-18 @ 14:00 UTC (51 minutes ago) Marginal Visual Flight Rules
Wind Visibility Clouds
100° at 12 knots 10,000+ meters
  • Broken at 2,000' AGL
Temperatures Readings
Current 27°C / 81°F
Dewpoint 16°C / 61°F
Humidity 51%
Altimeter 30.09" Hg
Pressure 1019 hPa
Elevation 441
METAR FQNP 181400Z 10012KT 9999 BKN020 27/16 Q1019
Observed Flight Rules
Aug-18 @ 14:00 UTC
(51 minutes ago)
MVFR
Wind Visibility
100° at 12 knots 10,000+ meters
Clouds
  • Broken at 2,000' AGL
Temperature Dewpoint
27°C / 81°F 16°C / 61°F
Humidity Altimeter Pressure
51% 30.09" Hg 1019 hPa